createdAt,value
2022-11-10T00:09:35.344Z,21.13
2022-11-10T00:19:58.594Z,21.53
2022-11-10T00:30:19.558Z,19.80
2022-11-10T00:40:42.880Z,22.90
2022-11-10T00:51:04.332Z,23.37
2022-11-10T01:01:27.424Z,22.20
2022-11-10T01:11:48.375Z,22.10
2022-11-10T01:22:13.635Z,22.30
2022-11-10T01:32:34.526Z,26.53
2022-11-10T01:43:00.055Z,25.17
2022-11-10T01:53:24.859Z,19.73
2022-11-10T02:03:49.674Z,23.93
2022-11-10T02:14:12.922Z,23.47
2022-11-10T02:24:38.349Z,21.80
2022-11-10T02:34:59.140Z,24.03
2022-11-10T02:45:22.661Z,21.43
2022-11-10T02:55:43.973Z,22.13
2022-11-10T03:06:08.693Z,21.90
2022-11-10T03:16:34.404Z,21.77
2022-11-10T03:26:54.854Z,22.40
2022-11-10T03:37:20.524Z,21.87
2022-11-10T03:47:44.208Z,22.80
2022-11-10T03:58:07.936Z,21.80
2022-11-10T04:08:51.295Z,22.30
2022-11-10T04:19:19.266Z,21.83
2022-11-10T04:29:42.012Z,22.70
2022-11-10T04:40:07.871Z,22.93
2022-11-10T04:50:31.014Z,22.60
2022-11-10T05:00:55.157Z,23.50
2022-11-10T05:11:17.174Z,23.00
2022-11-10T05:21:38.093Z,22.90
2022-11-10T05:32:00.347Z,22.30
2022-11-10T05:42:23.351Z,24.10
2022-11-10T05:52:50.341Z,24.73
2022-11-10T06:03:11.805Z,24.17
2022-11-10T06:13:36.176Z,24.77
2022-11-10T06:23:58.329Z,25.80
2022-11-10T06:34:19.829Z,23.63
2022-11-10T06:44:43.079Z,24.37
2022-11-10T06:55:09.621Z,25.87
2022-11-10T07:05:34.616Z,24.37
2022-11-10T07:15:56.081Z,27.27
2022-11-10T07:26:22.393Z,26.13
2022-11-10T07:36:43.642Z,24.87
2022-11-10T07:47:08.453Z,25.87
2022-11-10T07:57:40.713Z,26.13
2022-11-10T08:08:04.447Z,25.60
2022-11-10T08:18:35.099Z,25.00
2022-11-10T08:28:56.310Z,31.23
2022-11-10T08:39:30.377Z,21.40
2022-11-10T08:49:58.385Z,19.98
2022-11-10T09:00:21.459Z,20.52
2022-11-10T09:10:44.631Z,20.77
2022-11-10T09:21:12.052Z,21.80
2022-11-10T09:31:33.827Z,21.35
2022-11-10T09:41:58.844Z,21.85
2022-11-10T09:52:21.831Z,21.27
2022-11-10T10:02:50.680Z,22.50
2022-11-10T10:13:33.125Z,21.20
2022-11-10T10:24:21.800Z,21.23
2022-11-10T10:34:44.488Z,22.00
2022-11-10T10:45:14.540Z,19.65
2022-11-10T10:55:36.387Z,18.95
2022-11-10T11:06:04.220Z,20.48
2022-11-10T11:16:24.786Z,20.10
2022-11-10T11:27:16.990Z,17.00
2022-11-10T11:37:56.474Z,15.77
2022-11-10T11:48:41.460Z,15.55
2022-11-10T11:59:08.763Z,14.93
2022-11-10T12:09:44.187Z,13.57
2022-11-10T12:20:23.509Z,13.65
2022-11-10T12:30:44.927Z,14.98
2022-11-10T12:41:13.931Z,12.75
2022-11-10T12:52:02.933Z,11.98
2022-11-10T13:02:34.243Z,12.10
2022-11-10T13:13:15.145Z,12.05
2022-11-10T13:23:45.210Z,10.60
2022-11-10T13:34:29.979Z,11.80
2022-11-10T13:44:54.177Z,11.85
2022-11-10T13:55:53.286Z,10.98
2022-11-10T14:06:18.968Z,11.70
2022-11-10T14:16:44.226Z,11.38
2022-11-10T14:27:08.040Z,10.57
2022-11-10T14:37:31.549Z,10.77
2022-11-10T14:47:57.867Z,12.48
2022-11-10T14:58:39.955Z,11.68
2022-11-10T15:09:21.510Z,12.55
2022-11-10T15:19:50.372Z,12.40
2022-11-10T15:30:23.436Z,9.95
2022-11-10T15:40:45.131Z,12.27
2022-11-10T15:51:12.897Z,12.80
2022-11-10T16:01:33.473Z,13.13
2022-11-10T16:11:55.054Z,13.32
2022-11-10T16:22:15.823Z,13.35
2022-11-10T16:32:36.571Z,12.80
2022-11-10T16:42:59.603Z,11.85
2022-11-10T16:53:31.019Z,12.30
2022-11-10T17:03:56.689Z,12.75
2022-11-10T17:14:18.558Z,10.90
2022-11-10T17:24:39.203Z,13.18
2022-11-10T17:35:02.340Z,13.23
2022-11-10T17:45:30.167Z,13.20
2022-11-10T17:55:51.204Z,11.70
2022-11-10T18:06:23.725Z,13.53
2022-11-10T18:16:46.561Z,15.43
2022-11-10T18:27:13.000Z,14.17
2022-11-10T18:37:38.004Z,14.73
2022-11-10T18:48:08.652Z,14.27
2022-11-10T18:58:31.364Z,13.57
2022-11-10T19:08:52.082Z,15.77
2022-11-10T19:19:16.218Z,13.33
2022-11-10T19:29:40.180Z,14.63
2022-11-10T19:40:01.058Z,14.53
2022-11-10T19:50:25.090Z,13.33
2022-11-10T20:00:49.072Z,14.53
2022-11-10T20:11:15.093Z,14.70
2022-11-10T20:21:36.591Z,14.40
2022-11-10T20:31:57.622Z,14.80
2022-11-10T20:42:21.664Z,14.83
2022-11-10T20:52:43.538Z,14.87
2022-11-10T21:03:04.776Z,14.40
2022-11-10T21:13:28.846Z,14.53
2022-11-10T21:23:57.606Z,15.53
2022-11-10T21:34:24.797Z,14.97
2022-11-10T21:44:48.984Z,14.67
2022-11-10T21:55:12.511Z,14.90
2022-11-10T22:05:36.957Z,13.03
2022-11-10T22:16:16.966Z,12.00
2022-11-10T22:26:38.947Z,11.10
2022-11-10T22:37:04.056Z,11.70
2022-11-10T22:47:47.450Z,10.50
2022-11-10T22:58:09.479Z,11.53
2022-11-10T23:08:33.695Z,11.43
2022-11-10T23:18:55.678Z,10.70
2022-11-10T23:29:16.487Z,13.40
2022-11-10T23:39:36.977Z,12.33
2022-11-10T23:49:57.582Z,12.33
